Aeroporto :
LOGIN :

Iscrizione | Disclaimer

   EN    FR    IT 

 










Sommario :    VFR   VFR Marginale   IFR   IFR Intensivo   IFR Molto Intensivo
Visibilità : 
Base nubi : 
>= 8 km
>= 3000ft
5 / 8 km
1000 / 3000 ft
1500m / 5 km
500 / 1000 ft
800 / 1500m
200 / 500 ft
< 800m
< 200 ft
Simboli :   Temporali  Nebbia  Neve Forte  Precipitazioni Forti  Vento > 20 kt
SIGMETs :   Varie  Temporali  Ghiacco  Turbolenza  Onda orograficha  Ceneri Vulcaniche






- Altitudine del aeroporto : 416 ft
- Codice IATA : OVD


LEAS - Asturias

ULTIMO METAR :
  • 061030Z 23005KT 200V300 CAVOK 10/08 Q1024 NOSIG

METARs OBSOLETI :
  • 061000Z 25005KT CAVOK 10/08 Q1024 NOSIG
  • 060930Z 26007KT CAVOK 09/07 Q1024 NOSIG
  • 060900Z 25007KT CAVOK 08/06 Q1023 NOSIG
  • 060830Z 23007KT 210V280 CAVOK 08/06 Q1023 NOSIG
  • 060800Z 25008KT CAVOK 07/06 Q1022 NOSIG

TAF TAF LEAS
Valido dal 06 a 09 ore il 07 a 09 ore UTC


060800Z 0609/0709 22008KT CAVOK TX13/0614Z TN07/0705Z
PROB30
TEMPO 0612/0618 28010KT



MetMap, La meteo Aeronautica in un colpo d'occhio ! - Copyright ORBIFLY Dicembre 2007 - Disclaimer

ORBIFLY MET'MAP TEAM :

Programmazione e sviluppo : Alexandra Zaïnal
Concezione : Baudouin d'Aumeries
Aiuto per la programmazione : Marc-Olivier Méhu
Supporto tecnico e logistico : Manuel Goepfert
Aiuto per la traduzione : Arnaldo La Scala

Contatto : metmap@orbifly.com




FONTI E CREDITI :

   NOAA